Lone Wolf, Oklahoma
Current Conditions -  °F | °C
As of 11:53 AM on Saturday 20 Dec 2014 (Local Time) from KHBR Reporting Station
Overcast Overcast  
Wind Chill: 39°   Ceiling: 2400
Heat Index: 44°   Visibility: 10mi
Dew Point: 39°   Wind: 9mph
Humidity: 82%   Direction: 180°S
Pressure: 30.18"   Gusts: NA
Location:  34.99°N, 99.25°W
Report Text: KHBR 201753Z AUTO 18008KT 10SM OVC024 07/04 A3018 RMK AO2 SLP224 T00670039 10072 20050 58006
Loading
Personal Weather Stations






























Interactive Weather Map New forecast layout! Learn more

10-Day Weather Forecast

Advertisements
Track Severe Weather on mobile